createdAt,value
2022-12-08T00:01:09.023Z,10.95
2022-12-08T00:06:37.990Z,10.68
2022-12-08T00:11:40.221Z,11.10
2022-12-08T00:16:42.721Z,10.60
2022-12-08T00:21:45.007Z,10.38
2022-12-08T00:26:47.898Z,9.85
2022-12-08T00:31:50.526Z,9.43
2022-12-08T00:36:52.674Z,9.00
2022-12-08T00:42:13.030Z,8.25
2022-12-08T00:47:15.351Z,7.37
2022-12-08T00:52:17.486Z,6.97
2022-12-08T00:57:19.555Z,6.43
2022-12-08T01:02:21.623Z,5.25
2022-12-08T01:07:23.699Z,6.20
2022-12-08T01:12:29.666Z,5.60
2022-12-08T01:17:31.723Z,5.32
2022-12-08T01:22:35.956Z,5.45
2022-12-08T01:27:38.125Z,4.53
2022-12-08T01:32:40.170Z,4.38
2022-12-08T01:37:42.223Z,4.45
2022-12-08T01:42:44.317Z,4.15
2022-12-08T01:47:49.574Z,4.03
2022-12-08T01:53:01.095Z,3.05
2022-12-08T01:58:11.522Z,2.60
2022-12-08T02:03:18.818Z,2.30
2022-12-08T02:08:22.012Z,1.92
2022-12-08T02:13:24.835Z,2.15
2022-12-08T02:19:02.092Z,2.03
2022-12-08T02:24:33.942Z,2.30
2022-12-08T02:30:03.590Z,2.47
2022-12-08T02:35:25.473Z,2.40
2022-12-08T02:40:36.430Z,2.28
2022-12-08T02:45:44.210Z,2.33
2022-12-08T02:50:46.415Z,2.45
2022-12-08T02:56:09.990Z,2.60
2022-12-08T03:01:12.333Z,3.30
2022-12-08T03:06:14.364Z,3.42
2022-12-08T03:11:24.885Z,4.60
2022-12-08T03:16:29.738Z,5.40
2022-12-08T03:21:34.955Z,6.63
2022-12-08T03:26:49.987Z,8.40
2022-12-08T03:31:57.483Z,9.45
2022-12-08T03:37:00.906Z,7.22
2022-12-08T03:42:03.229Z,8.35
2022-12-08T03:47:05.461Z,8.23
2022-12-08T03:52:07.629Z,6.65
2022-12-08T03:57:09.868Z,5.63
2022-12-08T04:02:11.982Z,4.80
2022-12-08T04:07:14.197Z,3.70
2022-12-08T04:12:16.280Z,2.88
2022-12-08T04:17:18.342Z,3.05
2022-12-08T04:22:20.362Z,2.17
2022-12-08T04:27:22.614Z,1.80
2022-12-08T04:32:24.726Z,1.58
2022-12-08T04:37:28.437Z,0.63
2022-12-08T04:42:30.503Z,1.00
2022-12-08T04:47:33.135Z,1.27
2022-12-08T04:52:35.379Z,1.35
2022-12-08T04:57:37.444Z,1.40
2022-12-08T05:02:40.160Z,1.58
2022-12-08T05:07:42.354Z,1.48
2022-12-08T05:12:44.435Z,1.20
2022-12-08T05:17:46.479Z,1.50
2022-12-08T05:22:48.602Z,1.33
2022-12-08T05:27:50.747Z,1.10
2022-12-08T05:32:52.790Z,1.20
2022-12-08T05:37:54.851Z,1.60
2022-12-08T05:42:56.897Z,1.40
2022-12-08T05:47:59.357Z,1.33
2022-12-08T05:53:01.753Z,1.88
2022-12-08T05:58:07.808Z,1.85
2022-12-08T06:03:14.639Z,1.40
2022-12-08T06:08:17.247Z,1.85
2022-12-08T06:13:19.334Z,2.35
2022-12-08T06:18:21.512Z,3.25
2022-12-08T06:23:23.614Z,2.75
2022-12-08T06:28:25.732Z,3.03
2022-12-08T06:33:27.992Z,3.22
2022-12-08T06:38:30.334Z,2.30
2022-12-08T06:43:33.291Z,3.28
2022-12-08T06:48:35.464Z,3.53
2022-12-08T06:53:38.291Z,2.65
2022-12-08T06:58:40.484Z,3.10
2022-12-08T07:03:43.619Z,3.92
2022-12-08T07:08:45.999Z,3.97
2022-12-08T07:13:48.270Z,4.32
2022-12-08T07:18:50.620Z,4.50
2022-12-08T07:23:57.275Z,4.63
2022-12-08T07:29:00.895Z,3.13
2022-12-08T07:34:03.167Z,2.78
2022-12-08T07:39:05.186Z,2.95
2022-12-08T07:44:07.206Z,2.10
2022-12-08T07:49:09.454Z,2.10
2022-12-08T07:54:12.458Z,1.45
2022-12-08T07:59:14.721Z,1.42
2022-12-08T08:04:17.419Z,1.70
2022-12-08T08:09:19.767Z,1.90
2022-12-08T08:14:21.848Z,1.80
2022-12-08T08:19:23.869Z,1.83
2022-12-08T08:24:26.579Z,2.00
2022-12-08T08:29:28.726Z,2.50
2022-12-08T08:34:31.043Z,2.10
2022-12-08T08:39:33.116Z,1.85
2022-12-08T08:44:35.231Z,1.88
2022-12-08T08:49:37.665Z,1.88
2022-12-08T08:54:39.867Z,1.50
2022-12-08T08:59:42.177Z,1.50
2022-12-08T09:04:44.795Z,1.42
2022-12-08T09:09:47.215Z,1.73
2022-12-08T09:14:49.430Z,1.63
2022-12-08T09:19:51.611Z,2.03
2022-12-08T09:24:53.755Z,2.17
2022-12-08T09:29:55.890Z,2.15
2022-12-08T09:34:58.090Z,2.30
2022-12-08T09:40:00.346Z,2.20
2022-12-08T09:45:09.046Z,2.10
2022-12-08T09:50:34.982Z,3.08
2022-12-08T09:55:45.212Z,2.33
2022-12-08T10:00:47.469Z,2.85
2022-12-08T10:06:09.296Z,2.30
2022-12-08T10:11:18.898Z,2.92
2022-12-08T10:16:29.504Z,2.60
2022-12-08T10:21:33.113Z,2.72
2022-12-08T10:26:35.165Z,2.60
2022-12-08T10:31:37.393Z,3.15
2022-12-08T10:36:57.014Z,2.80
2022-12-08T10:42:21.794Z,2.70
2022-12-08T10:47:26.326Z,2.72
2022-12-08T10:52:28.422Z,3.22
2022-12-08T10:57:30.398Z,2.67
2022-12-08T11:02:32.494Z,2.45
2022-12-08T11:07:34.555Z,2.47
2022-12-08T11:12:37.501Z,2.90
2022-12-08T11:17:39.834Z,3.47
2022-12-08T11:22:50.614Z,3.50
2022-12-08T11:27:56.577Z,2.80
2022-12-08T11:33:03.767Z,2.50
2022-12-08T11:38:21.712Z,2.65
2022-12-08T11:43:29.087Z,2.60
2022-12-08T11:48:49.925Z,1.90
2022-12-08T11:53:54.588Z,1.95
2022-12-08T11:59:01.530Z,1.40
2022-12-08T12:04:13.579Z,1.60
2022-12-08T12:09:32.847Z,1.90
2022-12-08T12:14:53.191Z,1.83
2022-12-08T12:19:59.051Z,2.23
2022-12-08T12:25:02.580Z,2.50
2022-12-08T12:30:08.860Z,2.88
2022-12-08T12:35:26.855Z,3.10
2022-12-08T12:40:39.604Z,3.67
2022-12-08T12:45:43.867Z,5.05
2022-12-08T12:50:48.400Z,3.97
2022-12-08T12:55:55.157Z,4.68
2022-12-08T13:01:12.720Z,4.20
2022-12-08T13:06:22.619Z,4.18
2022-12-08T13:11:25.362Z,4.10
2022-12-08T13:16:36.561Z,4.60
2022-12-08T13:21:39.669Z,4.55
2022-12-08T13:26:47.174Z,3.55
2022-12-08T13:31:59.845Z,2.90
2022-12-08T13:37:10.951Z,2.60
2022-12-08T13:42:13.076Z,2.50
2022-12-08T13:47:37.134Z,1.90
2022-12-08T13:58:46.044Z,1.98
2022-12-08T14:04:31.136Z,1.33
2022-12-08T14:09:29.217Z,2.40
2022-12-08T14:20:46.538Z,2.35
2022-12-08T14:26:05.409Z,1.73
2022-12-08T14:31:19.422Z,1.90
2022-12-08T14:36:33.982Z,2.28
2022-12-08T14:42:11.178Z,2.30
2022-12-08T14:47:21.441Z,2.50
2022-12-08T14:52:45.894Z,2.17
2022-12-08T14:57:54.730Z,2.75
2022-12-08T15:03:06.005Z,2.30
2022-12-08T15:08:13.537Z,1.80
2022-12-08T15:13:16.432Z,2.10
2022-12-08T15:18:31.302Z,2.05
2022-12-08T15:23:42.628Z,2.28
2022-12-08T15:28:45.160Z,1.77
2022-12-08T15:34:28.468Z,2.00
2022-12-08T15:39:45.575Z,2.28
2022-12-08T15:44:47.977Z,2.63
2022-12-08T15:49:52.556Z,2.55
2022-12-08T15:54:54.746Z,2.40
2022-12-08T15:59:56.890Z,1.90
2022-12-08T16:10:23.481Z,2.10
2022-12-08T16:27:35.074Z,3.10
2022-12-08T16:31:44.470Z,3.30
2022-12-08T16:36:46.622Z,4.65
2022-12-08T16:42:07.343Z,4.28
2022-12-08T16:47:09.485Z,5.72
2022-12-08T16:52:11.557Z,6.22
2022-12-08T16:57:13.951Z,4.95
2022-12-08T17:02:16.689Z,7.07
2022-12-08T17:07:18.774Z,7.00
2022-12-08T17:12:21.054Z,6.22
2022-12-08T17:17:23.334Z,6.55
2022-12-08T17:22:25.397Z,7.10
2022-12-08T17:27:28.274Z,7.40
2022-12-08T17:32:30.470Z,6.78
2022-12-08T17:37:32.637Z,6.80
2022-12-08T17:42:34.779Z,7.80
2022-12-08T17:47:37.153Z,6.90
2022-12-08T17:52:39.239Z,7.57
2022-12-08T17:57:41.467Z,6.55
2022-12-08T18:02:43.572Z,8.98
2022-12-08T18:07:45.776Z,8.38
2022-12-08T18:12:48.103Z,7.53
2022-12-08T18:17:50.441Z,7.22
2022-12-08T18:22:52.561Z,9.68
2022-12-08T18:27:54.802Z,8.52
2022-12-08T18:32:57.596Z,9.07
2022-12-08T18:38:00.253Z,9.30
2022-12-08T18:43:02.302Z,10.18
2022-12-08T18:48:04.693Z,10.65
2022-12-08T18:53:06.701Z,10.18
2022-12-08T18:58:11.990Z,11.27
2022-12-08T19:03:14.070Z,11.13
2022-12-08T19:08:16.270Z,11.25
2022-12-08T19:13:18.391Z,11.52
2022-12-08T19:18:20.470Z,12.60
2022-12-08T19:23:22.849Z,12.90
2022-12-08T19:28:25.647Z,13.65
2022-12-08T19:33:27.667Z,18.17
2022-12-08T19:38:30.141Z,14.93
2022-12-08T19:43:50.963Z,14.10
2022-12-08T19:48:53.014Z,13.05
2022-12-08T19:53:55.234Z,13.48
2022-12-08T19:58:57.266Z,13.88
2022-12-08T20:03:59.364Z,13.45
2022-12-08T20:09:01.454Z,13.30
2022-12-08T20:14:03.724Z,12.35
2022-12-08T20:19:05.874Z,12.50
2022-12-08T20:24:08.212Z,12.57
2022-12-08T20:29:10.702Z,64.75
2022-12-08T20:34:18.733Z,23.08
2022-12-08T20:39:20.819Z,46.28
2022-12-08T20:44:22.934Z,13.90
2022-12-08T20:49:28.533Z,14.52
2022-12-08T20:54:35.722Z,14.17
2022-12-08T20:59:38.358Z,14.52
2022-12-08T21:04:40.871Z,15.35
2022-12-08T21:09:43.355Z,13.95
2022-12-08T21:14:45.734Z,14.80
2022-12-08T21:19:47.984Z,15.73
2022-12-08T21:24:50.426Z,16.17
2022-12-08T21:29:52.912Z,19.65
2022-12-08T21:34:55.165Z,17.67
2022-12-08T21:39:57.531Z,17.77
2022-12-08T21:44:59.831Z,15.25
2022-12-08T21:50:02.814Z,14.20
2022-12-08T21:55:06.582Z,15.30
2022-12-08T22:00:13.662Z,16.35
2022-12-08T22:05:16.097Z,17.08
2022-12-08T22:10:18.775Z,16.75
2022-12-08T22:15:21.130Z,17.92
2022-12-08T22:20:23.407Z,14.70
2022-12-08T22:25:25.453Z,15.02
2022-12-08T22:30:28.117Z,14.73
2022-12-08T22:35:30.229Z,12.98
2022-12-08T22:40:32.298Z,13.15
2022-12-08T22:45:34.439Z,13.02
2022-12-08T22:50:36.864Z,14.30
2022-12-08T22:55:43.682Z,14.50
2022-12-08T23:00:46.530Z,13.88
2022-12-08T23:05:48.700Z,13.77
2022-12-08T23:10:52.830Z,13.43
2022-12-08T23:15:54.910Z,13.68
2022-12-08T23:21:03.344Z,13.63
2022-12-08T23:26:17.988Z,14.35
2022-12-08T23:31:20.971Z,15.45
2022-12-08T23:36:27.417Z,15.27
2022-12-08T23:41:29.610Z,17.20
2022-12-08T23:46:32.047Z,17.92
2022-12-08T23:51:34.146Z,19.48
2022-12-08T23:56:36.304Z,23.98
